createdAt,value
2019-05-16T00:02:08.204Z,7.40
2019-05-16T00:04:37.802Z,6.80
2019-05-16T00:07:07.888Z,6.80
2019-05-16T00:09:35.132Z,6.80
2019-05-16T00:12:02.905Z,6.80
2019-05-16T00:14:30.495Z,6.80
2019-05-16T00:16:58.906Z,6.80
2019-05-16T00:19:28.610Z,6.70
2019-05-16T00:21:58.035Z,6.70
2019-05-16T00:24:25.464Z,6.60
2019-05-16T00:26:53.050Z,6.60
2019-05-16T00:29:20.693Z,6.70
2019-05-16T00:31:48.723Z,6.70
2019-05-16T00:34:18.753Z,6.70
2019-05-16T00:36:46.044Z,6.60
2019-05-16T00:39:13.599Z,6.60
2019-05-16T00:41:41.164Z,6.60
2019-05-16T00:44:08.757Z,6.60
2019-05-16T00:46:38.374Z,6.60
2019-05-16T00:49:05.631Z,6.60
2019-05-16T00:51:33.175Z,6.60
2019-05-16T00:54:00.651Z,7.50
2019-05-16T00:56:28.876Z,6.60
2019-05-16T00:58:58.755Z,6.80
2019-05-16T01:01:28.274Z,6.50
2019-05-16T01:03:58.460Z,6.60
2019-05-16T01:06:25.743Z,6.70
2019-05-16T01:08:53.394Z,6.60
2019-05-16T01:11:20.934Z,7.00
2019-05-16T01:13:48.844Z,6.60
2019-05-16T01:16:18.582Z,6.60
2019-05-16T01:18:48.599Z,6.50
2019-05-16T01:21:18.377Z,7.10
2019-05-16T01:23:48.060Z,6.50
2019-05-16T01:26:15.155Z,6.40
2019-05-16T01:28:42.835Z,6.50
2019-05-16T01:31:10.609Z,6.50
2019-05-16T01:33:38.648Z,6.50
2019-05-16T01:36:08.798Z,6.40
2019-05-16T01:38:35.755Z,6.50
2019-05-16T01:41:03.310Z,6.50
2019-05-16T01:43:30.944Z,6.50
2019-05-16T01:45:58.579Z,6.80
2019-05-16T01:48:26.143Z,6.50
2019-05-16T01:50:54.045Z,6.50
2019-05-16T01:53:21.483Z,6.40
2019-05-16T01:55:49.131Z,6.40
2019-05-16T01:58:20.054Z,6.40
2019-05-16T02:00:58.925Z,7.70
2019-05-16T02:03:16.191Z,4.50
2019-05-16T02:05:43.810Z,6.40
2019-05-16T02:08:12.460Z,6.40
2019-05-16T02:10:40.038Z,6.40
2019-05-16T02:13:08.522Z,6.40
2019-05-16T02:15:38.399Z,6.40
2019-05-16T02:18:08.020Z,6.20
2019-05-16T02:20:35.166Z,6.40
2019-05-16T02:23:02.830Z,6.40
2019-05-16T02:25:30.520Z,6.40
2019-05-16T02:27:59.088Z,6.30
2019-05-16T02:30:26.845Z,6.60
2019-05-16T02:32:54.540Z,7.60
2019-05-16T02:35:22.187Z,6.20
2019-05-16T02:37:51.679Z,6.10
2019-05-16T02:40:21.088Z,6.20
2019-05-16T02:42:51.433Z,6.10
2019-05-16T02:45:23.918Z,6.20
2019-05-16T02:47:51.326Z,6.20
2019-05-16T02:50:21.933Z,6.70
2019-05-16T02:52:51.396Z,6.20
2019-05-16T02:55:21.519Z,6.90
2019-05-16T02:57:50.955Z,6.20
2019-05-16T03:00:21.782Z,6.20
2019-05-16T03:02:50.472Z,6.20
2019-05-16T03:05:20.592Z,7.40
2019-05-16T03:07:47.807Z,6.10
2019-05-16T03:10:15.576Z,6.00
2019-05-16T03:12:43.059Z,6.10
2019-05-16T03:15:11.071Z,6.00
2019-05-16T03:17:43.523Z,5.90
2019-05-16T03:20:11.774Z,6.00
2019-05-16T03:22:40.960Z,5.80
2019-05-16T03:25:11.386Z,5.80
2019-05-16T03:27:41.271Z,5.90
2019-05-16T03:30:14.428Z,6.00
2019-05-16T03:32:43.784Z,5.70
2019-05-16T03:35:07.690Z,6.20
2019-05-16T03:37:50.201Z,5.70
2019-05-16T03:40:04.652Z,5.70
2019-05-16T03:42:32.225Z,5.60
2019-05-16T03:45:02.161Z,5.60
2019-05-16T03:47:31.249Z,5.60
2019-05-16T03:50:00.609Z,5.50
2019-05-16T03:52:30.797Z,5.50
2019-05-16T03:54:57.541Z,6.40
2019-05-16T03:57:25.105Z,5.60
2019-05-16T03:59:52.825Z,5.60
2019-05-16T04:02:21.629Z,5.50
2019-05-16T04:04:51.102Z,6.20
2019-05-16T04:07:21.396Z,5.50
2019-05-16T04:09:50.630Z,6.20
2019-05-16T04:12:17.882Z,5.60
2019-05-16T04:14:45.439Z,5.60
2019-05-16T04:17:12.916Z,5.70
2019-05-16T04:19:41.628Z,5.70
2019-05-16T04:22:15.140Z,5.90
2019-05-16T04:24:42.982Z,5.80
2019-05-16T04:27:12.034Z,5.90
2019-05-16T04:29:40.760Z,5.90
2019-05-16T04:32:11.062Z,6.00
2019-05-16T04:34:41.577Z,5.90
2019-05-16T04:37:11.482Z,5.90
2019-05-16T04:39:41.239Z,6.00
2019-05-16T04:42:10.828Z,6.10
2019-05-16T04:44:37.195Z,6.30
2019-05-16T04:47:05.601Z,6.50
2019-05-16T04:49:33.222Z,6.80
2019-05-16T04:52:00.870Z,6.80
2019-05-16T04:54:30.761Z,7.60
2019-05-16T04:57:01.247Z,6.90
2019-05-16T04:59:27.426Z,7.00
2019-05-16T05:01:54.959Z,7.10
2019-05-16T05:04:22.565Z,7.70
2019-05-16T05:06:51.204Z,7.20
2019-05-16T05:09:20.917Z,7.20
2019-05-16T05:11:51.707Z,7.10
2019-05-16T05:14:21.028Z,7.10
2019-05-16T05:16:50.567Z,7.20
2019-05-16T05:19:20.039Z,7.10
2019-05-16T05:21:46.639Z,7.00
2019-05-16T05:24:14.111Z,6.90
2019-05-16T05:26:41.703Z,7.00
2019-05-16T05:29:10.477Z,7.20
2019-05-16T05:31:44.472Z,6.80
2019-05-16T05:34:10.663Z,7.10
2019-05-16T05:36:40.722Z,7.20
2019-05-16T05:39:11.957Z,7.40
2019-05-16T05:41:39.933Z,7.50
2019-05-16T05:44:06.849Z,8.30
2019-05-16T05:46:34.446Z,7.60
2019-05-16T05:49:02.090Z,7.60
2019-05-16T05:51:30.087Z,7.60
2019-05-16T05:54:00.105Z,7.60
2019-05-16T05:56:27.570Z,7.40
2019-05-16T05:58:58.135Z,7.30
2019-05-16T06:01:25.085Z,7.10
2019-05-16T06:03:52.647Z,7.30
2019-05-16T06:06:21.015Z,7.60
2019-05-16T06:08:50.222Z,8.20
2019-05-16T06:11:20.315Z,8.10
2019-05-16T06:13:49.811Z,8.40
2019-05-16T06:16:20.132Z,8.30
2019-05-16T06:18:47.331Z,8.30
2019-05-16T06:21:14.886Z,8.40
2019-05-16T06:23:42.342Z,8.70
2019-05-16T06:26:12.134Z,8.90
2019-05-16T06:28:41.289Z,8.90
2019-05-16T06:31:13.896Z,8.80
2019-05-16T06:33:40.963Z,8.90
2019-05-16T06:36:07.996Z,8.90
2019-05-16T06:38:35.791Z,8.90
2019-05-16T06:41:03.390Z,8.80
2019-05-16T06:43:30.993Z,8.90
2019-05-16T06:46:00.635Z,9.00
2019-05-16T06:48:30.373Z,9.30
2019-05-16T06:51:02.552Z,9.90
2019-05-16T06:53:29.771Z,10.30
2019-05-16T06:55:56.953Z,10.30
2019-05-16T06:58:24.561Z,10.00
2019-05-16T07:00:52.862Z,10.70
2019-05-16T07:03:20.859Z,10.20
2019-05-16T07:05:50.421Z,10.30
2019-05-16T07:08:20.533Z,10.50
2019-05-16T07:10:50.894Z,10.60
2019-05-16T07:13:19.717Z,10.70
2019-05-16T07:15:49.790Z,10.80
2019-05-16T07:18:17.154Z,10.80
2019-05-16T07:20:44.948Z,10.60
2019-05-16T07:23:12.756Z,10.70
2019-05-16T07:25:41.261Z,10.80
2019-05-16T07:28:10.262Z,11.10
2019-05-16T07:30:40.674Z,11.10
2019-05-16T07:33:09.851Z,11.00
2019-05-16T07:35:37.386Z,11.00
2019-05-16T07:38:04.972Z,11.00
2019-05-16T07:40:32.550Z,11.10
2019-05-16T07:43:00.232Z,11.20
2019-05-16T07:45:27.798Z,11.00
2019-05-16T07:47:55.500Z,11.00
2019-05-16T07:50:22.968Z,11.20
2019-05-16T07:52:51.256Z,12.00
2019-05-16T07:55:20.931Z,12.80
2019-05-16T07:57:50.658Z,13.90
2019-05-16T08:00:21.447Z,14.90
2019-05-16T08:02:50.420Z,15.90
2019-05-16T08:05:17.570Z,15.40
2019-05-16T08:07:45.188Z,14.60
2019-05-16T08:10:12.648Z,14.30
2019-05-16T08:12:40.826Z,14.30
2019-05-16T08:15:10.163Z,14.10
2019-05-16T08:17:41.536Z,13.70
2019-05-16T08:20:07.285Z,13.30
2019-05-16T08:22:34.762Z,13.00
2019-05-16T08:25:03.141Z,12.90
2019-05-16T08:27:31.498Z,12.60
2019-05-16T08:30:02.527Z,12.50
2019-05-16T08:32:31.240Z,12.60
2019-05-16T08:35:01.035Z,12.70
2019-05-16T08:37:38.616Z,12.90
2019-05-16T08:40:00.383Z,12.90
2019-05-16T08:42:27.788Z,13.00
2019-05-16T08:44:55.560Z,12.90
2019-05-16T08:47:23.336Z,13.20
2019-05-16T08:49:52.142Z,13.20
2019-05-16T08:52:22.351Z,13.30
2019-05-16T08:54:51.066Z,13.10
2019-05-16T08:57:27.501Z,13.10
2019-05-16T09:02:22.001Z,12.90
2019-05-16T09:04:53.109Z,12.80
2019-05-16T09:07:17.074Z,13.20
2019-05-16T09:09:51.384Z,13.20
2019-05-16T09:10:25.131Z,13.10
2019-05-16T09:12:13.947Z,13.00
2019-05-16T09:14:41.613Z,13.20
2019-05-16T09:17:09.200Z,13.10
2019-05-16T09:19:36.928Z,13.40
2019-05-16T09:22:07.372Z,13.40
2019-05-16T09:24:34.259Z,13.80
2019-05-16T09:27:01.937Z,13.80
2019-05-16T09:29:29.727Z,13.80
2019-05-16T09:32:09.112Z,13.50
2019-05-16T09:34:28.379Z,13.50
2019-05-16T09:37:00.430Z,13.90
2019-05-16T09:39:27.741Z,14.40
2019-05-16T09:41:58.626Z,14.30
2019-05-16T09:44:27.105Z,14.70
2019-05-16T09:46:56.847Z,15.50
2019-05-16T09:49:24.896Z,16.00
2019-05-16T09:51:53.759Z,16.70
2019-05-16T09:54:21.368Z,17.30
2019-05-16T09:56:49.052Z,17.20
2019-05-16T09:59:17.295Z,17.30
2019-05-16T10:01:47.506Z,17.20
2019-05-16T10:04:17.258Z,16.90
2019-05-16T10:06:44.152Z,16.60
2019-05-16T10:09:11.786Z,16.20
2019-05-16T10:11:42.161Z,15.80
2019-05-16T10:14:10.391Z,15.80
2019-05-16T10:16:38.152Z,15.80
2019-05-16T10:19:07.458Z,15.70
2019-05-16T10:21:37.165Z,15.70
2019-05-16T10:24:07.109Z,16.00
2019-05-16T10:26:37.050Z,16.10
2019-05-16T10:29:10.532Z,16.30
2019-05-16T10:31:44.929Z,16.30
2019-05-16T10:34:07.610Z,16.70
2019-05-16T10:36:37.312Z,16.40
2019-05-16T10:39:07.531Z,16.20
2019-05-16T10:41:37.067Z,16.50
2019-05-16T10:44:06.239Z,16.40
2019-05-16T10:46:33.918Z,16.10
2019-05-16T10:49:01.671Z,16.00
2019-05-16T10:51:30.524Z,16.20
2019-05-16T10:54:09.033Z,16.30
2019-05-16T10:56:27.691Z,17.00
2019-05-16T10:59:27.516Z,17.90
2019-05-16T11:01:28.764Z,18.40
2019-05-16T11:03:56.837Z,18.40
2019-05-16T11:06:28.235Z,18.10
2019-05-16T11:08:53.276Z,18.00
2019-05-16T11:11:20.965Z,17.50
2019-05-16T11:13:51.086Z,17.30
2019-05-16T11:16:19.000Z,17.20
2019-05-16T11:18:46.627Z,17.10
2019-05-16T11:21:14.202Z,16.80
2019-05-16T11:23:42.936Z,16.50
2019-05-16T11:26:10.662Z,16.20
2019-05-16T11:28:38.332Z,16.60
2019-05-16T11:31:07.659Z,16.90
2019-05-16T11:33:37.026Z,16.40
2019-05-16T11:36:07.409Z,17.40
2019-05-16T11:38:37.765Z,18.40
2019-05-16T11:41:04.255Z,18.20
2019-05-16T11:43:32.938Z,18.20
2019-05-16T11:46:00.525Z,18.20
2019-05-16T11:48:29.206Z,17.80
2019-05-16T11:50:57.493Z,17.40
2019-05-16T11:53:28.186Z,17.60
2019-05-16T11:56:00.532Z,17.40
2019-05-16T11:58:26.488Z,17.30
2019-05-16T12:00:54.045Z,17.10
2019-05-16T12:03:21.606Z,17.30
2019-05-16T12:05:49.364Z,17.00
2019-05-16T12:08:17.669Z,16.90
2019-05-16T12:10:47.200Z,16.90
2019-05-16T12:13:25.259Z,16.50
2019-05-16T12:15:44.565Z,16.60
2019-05-16T12:18:12.068Z,16.60
2019-05-16T12:20:40.022Z,16.50
2019-05-16T12:23:08.082Z,16.30
2019-05-16T12:25:42.316Z,15.80
2019-05-16T12:28:10.121Z,15.40
2019-05-16T12:30:40.476Z,15.40
2019-05-16T12:33:07.473Z,15.30
2019-05-16T12:35:36.899Z,15.20
2019-05-16T12:38:07.791Z,15.00
2019-05-16T12:40:34.354Z,14.80
2019-05-16T12:43:02.396Z,14.80
2019-05-16T12:45:30.092Z,14.80
2019-05-16T12:47:57.818Z,14.70
2019-05-16T12:50:28.390Z,14.70
2019-05-16T12:52:56.965Z,14.60
2019-05-16T12:55:27.000Z,14.50
2019-05-16T12:57:56.632Z,13.60
2019-05-16T13:00:24.212Z,13.70
2019-05-16T13:02:51.895Z,14.30
2019-05-16T13:05:19.685Z,14.30
2019-05-16T13:07:47.793Z,14.10
2019-05-16T13:10:17.367Z,14.10
2019-05-16T13:12:46.228Z,14.10
2019-05-16T13:15:18.012Z,13.90
2019-05-16T13:17:47.157Z,13.70
2019-05-16T13:20:17.145Z,13.80
2019-05-16T13:22:47.142Z,13.80
2019-05-16T13:25:18.061Z,13.90
2019-05-16T13:27:47.442Z,13.80
2019-05-16T13:30:17.323Z,13.70
2019-05-16T13:32:44.599Z,13.80
2019-05-16T13:35:36.722Z,13.80
2019-05-16T13:38:03.927Z,13.70
2019-05-16T13:40:31.615Z,13.50
2019-05-16T13:42:59.173Z,13.50
2019-05-16T13:45:27.259Z,13.60
2019-05-16T13:47:57.302Z,13.60
2019-05-16T13:50:27.163Z,13.70
2019-05-16T13:52:54.481Z,13.70
2019-05-16T13:55:22.202Z,13.80
2019-05-16T13:57:49.876Z,13.60
2019-05-16T14:00:19.595Z,13.50
2019-05-16T14:02:47.293Z,13.40
2019-05-16T14:05:17.907Z,13.30
2019-05-16T14:07:47.776Z,13.40
2019-05-16T14:10:17.849Z,13.40
2019-05-16T14:12:49.085Z,13.30
2019-05-16T14:15:14.721Z,13.30
2019-05-16T14:17:42.503Z,13.10
2019-05-16T14:20:14.834Z,13.00
2019-05-16T14:22:40.287Z,13.00
2019-05-16T14:25:08.612Z,12.90
2019-05-16T14:27:38.329Z,12.90
2019-05-16T14:30:07.602Z,12.90
2019-05-16T14:32:41.619Z,12.90
2019-05-16T14:35:08.518Z,12.90
2019-05-16T14:37:37.925Z,13.00
2019-05-16T14:42:32.847Z,13.00
2019-05-16T14:45:10.858Z,13.20
2019-05-16T14:47:28.823Z,12.90
2019-05-16T14:49:55.321Z,12.80
2019-05-16T14:52:21.723Z,12.80
2019-05-16T14:54:48.179Z,12.70
2019-05-16T14:57:16.663Z,12.80
2019-05-16T15:00:18.966Z,12.90
2019-05-16T15:02:48.071Z,12.90
2019-05-16T15:05:14.312Z,12.90
2019-05-16T15:07:40.811Z,12.80
2019-05-16T15:10:07.728Z,12.70
2019-05-16T15:12:34.304Z,12.90
2019-05-16T15:15:16.042Z,12.90
2019-05-16T15:17:29.422Z,12.70
2019-05-16T15:19:57.159Z,12.60
2019-05-16T15:22:23.952Z,12.40
2019-05-16T15:24:50.402Z,12.40
2019-05-16T15:27:17.102Z,12.40
2019-05-16T15:29:43.635Z,12.30
2019-05-16T15:32:10.239Z,12.40
2019-05-16T15:34:38.092Z,12.40
2019-05-16T15:37:07.614Z,12.50
2019-05-16T15:39:33.454Z,11.40
2019-05-16T15:41:59.893Z,12.50
2019-05-16T15:44:27.337Z,12.40
2019-05-16T15:46:53.968Z,12.40
2019-05-16T15:49:20.453Z,12.40
2019-05-16T15:51:47.384Z,12.30
2019-05-16T15:54:18.010Z,12.20
2019-05-16T15:56:47.517Z,12.10
2019-05-16T15:59:13.939Z,12.10
2019-05-16T16:01:40.490Z,12.00
2019-05-16T16:04:07.150Z,12.00
2019-05-16T16:06:33.708Z,11.90
2019-05-16T16:09:00.092Z,12.00
2019-05-16T16:11:27.232Z,12.00
2019-05-16T16:13:54.070Z,12.00
2019-05-16T16:16:21.719Z,12.00
2019-05-16T16:18:48.232Z,12.00
2019-05-16T16:24:11.166Z,11.90
2019-05-16T16:26:38.260Z,11.90
2019-05-16T16:29:07.331Z,11.90
2019-05-16T16:31:33.492Z,11.80
2019-05-16T16:34:00.090Z,11.70
2019-05-16T16:36:27.521Z,11.70
2019-05-16T16:38:56.636Z,11.70
2019-05-16T16:41:22.707Z,11.70
2019-05-16T16:43:49.131Z,11.70
2019-05-16T16:46:16.867Z,11.70
2019-05-16T16:48:43.675Z,11.70
2019-05-16T16:51:11.328Z,11.60
2019-05-16T16:53:38.090Z,11.60
2019-05-16T16:56:07.231Z,11.50
2019-05-16T16:58:33.346Z,11.40
2019-05-16T17:01:01.552Z,11.40
2019-05-16T17:03:28.272Z,11.40
2019-05-16T17:05:57.080Z,11.50
2019-05-16T17:08:23.973Z,11.40
2019-05-16T17:10:50.449Z,11.40
2019-05-16T17:13:17.025Z,11.30
2019-05-16T17:15:43.677Z,11.20
2019-05-16T17:18:10.080Z,11.20
2019-05-16T17:20:37.124Z,11.20
2019-05-16T17:23:06.595Z,11.20
2019-05-16T17:25:32.767Z,11.10
2019-05-16T17:27:59.184Z,11.20
2019-05-16T17:30:26.000Z,11.10
2019-05-16T17:32:53.362Z,11.10
2019-05-16T17:35:20.265Z,11.10
2019-05-16T17:37:47.084Z,11.10
2019-05-16T17:40:13.800Z,11.10
2019-05-16T17:42:40.322Z,11.00
2019-05-16T17:45:58.728Z,11.00
2019-05-16T17:48:29.612Z,10.90
2019-05-16T17:50:54.064Z,10.80
2019-05-16T17:53:20.693Z,10.80
2019-05-16T17:55:47.466Z,10.80
2019-05-16T17:58:16.431Z,10.80
2019-05-16T18:00:43.186Z,10.90
2019-05-16T18:03:11.622Z,11.50
2019-05-16T18:05:38.199Z,10.80
2019-05-16T18:08:07.148Z,10.80
2019-05-16T18:10:33.432Z,10.80
2019-05-16T18:12:59.943Z,10.80
2019-05-16T18:15:26.780Z,10.80
2019-05-16T18:17:53.190Z,10.70
2019-05-16T18:20:22.416Z,10.70
2019-05-16T18:22:49.174Z,10.70
2019-05-16T18:25:16.366Z,10.70
2019-05-16T18:27:43.154Z,10.70
2019-05-16T18:30:09.952Z,10.60
2019-05-16T18:32:37.329Z,10.50
2019-05-16T18:35:07.347Z,10.50
2019-05-16T18:37:34.384Z,10.50
2019-05-16T18:40:00.839Z,10.50
2019-05-16T18:42:27.617Z,10.50
2019-05-16T18:44:56.458Z,10.50
2019-05-16T18:47:22.793Z,10.40
2019-05-16T18:49:50.427Z,10.50
2019-05-16T18:52:17.325Z,10.40
2019-05-16T18:54:46.521Z,10.50
2019-05-16T18:57:12.773Z,10.40
2019-05-16T18:59:39.431Z,10.40
2019-05-16T19:02:09.741Z,10.40
2019-05-16T19:04:34.600Z,10.40
2019-05-16T19:07:01.141Z,10.40
2019-05-16T19:09:27.663Z,10.30
2019-05-16T19:11:54.202Z,10.30
2019-05-16T19:14:20.709Z,11.00
2019-05-16T19:16:49.229Z,10.30
2019-05-16T19:19:16.816Z,10.20
2019-05-16T19:21:43.235Z,10.30
2019-05-16T19:24:09.861Z,10.20
2019-05-16T19:26:37.240Z,10.10
2019-05-16T19:29:06.511Z,10.00
2019-05-16T19:31:33.651Z,10.00
2019-05-16T19:34:00.160Z,10.10
2019-05-16T19:36:48.475Z,10.10
2019-05-16T19:39:14.964Z,10.00
2019-05-16T19:41:42.128Z,10.00
2019-05-16T19:44:08.723Z,10.00
2019-05-16T19:46:35.314Z,10.00
2019-05-16T19:49:01.810Z,10.00
2019-05-16T19:51:28.201Z,9.90
2019-05-16T19:53:56.610Z,9.90
2019-05-16T19:56:23.006Z,9.90
2019-05-16T19:58:49.417Z,9.90
2019-05-16T20:01:16.840Z,9.90
2019-05-16T20:03:43.500Z,9.90
2019-05-16T20:06:12.070Z,9.80
2019-05-16T20:08:38.430Z,9.80
2019-05-16T20:11:04.960Z,9.80
2019-05-16T20:13:31.468Z,9.80
2019-05-16T20:15:57.990Z,9.80
2019-05-16T20:18:24.393Z,9.80
2019-05-16T20:20:50.963Z,9.80
2019-05-16T20:23:18.718Z,9.80
2019-05-16T20:25:47.034Z,9.80
2019-05-16T20:28:13.550Z,9.80
2019-05-16T20:30:40.034Z,9.80
2019-05-16T20:33:09.127Z,9.80
2019-05-16T20:35:37.296Z,9.70
2019-05-16T20:38:03.201Z,9.70
2019-05-16T20:40:29.576Z,9.70
2019-05-16T20:42:56.444Z,9.70
2019-05-16T20:45:24.402Z,9.70
2019-05-16T20:47:51.003Z,9.70
2019-05-16T20:50:18.789Z,9.70
2019-05-16T20:52:46.581Z,9.70
2019-05-16T20:55:14.261Z,9.70
2019-05-16T20:57:41.042Z,9.70
2019-05-16T21:00:08.418Z,9.70
2019-05-16T21:02:37.600Z,9.60
2019-05-16T21:05:06.517Z,9.70
2019-05-16T21:07:32.630Z,9.70
2019-05-16T21:09:59.327Z,9.60
2019-05-16T21:12:26.558Z,9.60
2019-05-16T21:14:53.170Z,9.60
2019-05-16T21:17:19.684Z,9.50
2019-05-16T21:19:48.156Z,9.50
2019-05-16T21:22:16.280Z,9.50
2019-05-16T21:24:42.832Z,9.50
2019-05-16T21:27:09.336Z,9.50
2019-05-16T21:29:36.950Z,9.60
2019-05-16T21:32:03.636Z,9.50
2019-05-16T21:34:30.001Z,8.60
2019-05-16T21:37:00.935Z,9.50
2019-05-16T21:39:26.479Z,9.50
2019-05-16T21:41:53.061Z,9.40
2019-05-16T21:44:20.544Z,9.40
2019-05-16T21:46:47.150Z,9.40
2019-05-16T21:49:16.478Z,9.40
2019-05-16T21:51:42.420Z,9.30
2019-05-16T21:54:08.911Z,9.40
2019-05-16T21:56:37.292Z,9.40
2019-05-16T21:59:03.928Z,9.40
2019-05-16T22:01:30.879Z,9.30
2019-05-16T22:03:57.705Z,9.40
2019-05-16T22:06:25.230Z,9.40
2019-05-16T22:08:51.819Z,9.40
2019-05-16T22:11:18.237Z,9.40
2019-05-16T22:13:46.635Z,9.30
2019-05-16T22:16:13.489Z,9.30
2019-05-16T22:18:39.865Z,9.30
2019-05-16T22:21:07.610Z,9.40
2019-05-16T22:23:34.757Z,9.30
2019-05-16T22:26:01.496Z,9.20
2019-05-16T22:28:30.144Z,9.10
2019-05-16T22:30:58.470Z,9.00
2019-05-16T22:33:26.769Z,9.00
2019-05-16T22:35:53.368Z,9.00
2019-05-16T22:38:19.872Z,8.90
2019-05-16T22:40:59.747Z,8.80
2019-05-16T22:43:26.706Z,8.90
2019-05-16T22:45:53.225Z,8.70
2019-05-16T22:48:19.637Z,8.60
2019-05-16T22:50:46.052Z,8.50
2019-05-16T22:53:12.665Z,8.50
2019-05-16T22:55:39.081Z,8.40
2019-05-16T22:58:07.324Z,8.40
2019-05-16T23:00:33.905Z,8.30
2019-05-16T23:03:00.300Z,8.30
2019-05-16T23:05:27.537Z,8.20
2019-05-16T23:08:02.898Z,8.10
2019-05-16T23:10:24.975Z,8.00
2019-05-16T23:12:50.819Z,8.30
2019-05-16T23:15:17.759Z,7.90
2019-05-16T23:17:46.411Z,7.90
2019-05-16T23:20:13.009Z,7.80
2019-05-16T23:22:39.402Z,7.70
2019-05-16T23:25:07.653Z,7.60
2019-05-16T23:27:36.577Z,7.70
2019-05-16T23:30:07.425Z,7.50
2019-05-16T23:32:33.765Z,7.40
2019-05-16T23:35:00.155Z,7.30
2019-05-16T23:37:27.757Z,7.80
2019-05-16T23:39:56.768Z,7.20
2019-05-16T23:42:23.189Z,7.10
2019-05-16T23:44:49.619Z,7.10
2019-05-16T23:47:16.489Z,7.00
2019-05-16T23:49:43.091Z,7.00
2019-05-16T23:52:09.505Z,8.10
2019-05-16T23:54:36.870Z,6.80
2019-05-16T23:57:03.561Z,6.80
2019-05-16T23:59:30.208Z,6.80
